createdAt,value
2023-03-23T15:59:44.357Z,2.13
2023-03-23T16:02:21.230Z,2.23
2023-03-23T16:04:51.309Z,2.07
2023-03-23T16:07:22.876Z,1.97
2023-03-23T16:09:51.104Z,1.20
2023-03-23T16:12:19.312Z,2.13
2023-03-23T16:14:47.193Z,1.17
2023-03-23T16:17:19.533Z,2.07
2023-03-23T16:19:47.305Z,1.40
2023-03-23T16:22:18.127Z,2.20
2023-03-23T16:24:46.632Z,1.90
2023-03-23T16:27:14.829Z,2.27
2023-03-23T16:30:02.379Z,2.03
2023-03-23T16:32:30.777Z,2.30
2023-03-23T16:34:58.935Z,1.90
2023-03-23T16:37:33.270Z,1.93
2023-03-23T16:40:01.364Z,2.10
2023-03-23T16:42:29.441Z,1.83
2023-03-23T16:44:57.234Z,1.97
2023-03-23T16:47:25.572Z,1.43
2023-03-23T16:49:54.132Z,1.80
2023-03-23T16:52:22.295Z,2.07
2023-03-23T16:54:51.926Z,2.20
2023-03-23T16:57:20.609Z,1.67
2023-03-23T16:59:49.686Z,2.10
2023-03-23T17:02:17.960Z,1.83
2023-03-23T17:04:47.146Z,1.90
2023-03-23T17:07:15.253Z,1.80
2023-03-23T17:09:43.375Z,1.87
2023-03-23T17:12:12.700Z,1.90
2023-03-23T17:14:41.399Z,2.30
2023-03-23T17:17:12.536Z,1.77
2023-03-23T17:19:40.971Z,1.77
2023-03-23T17:22:11.874Z,2.13
2023-03-23T17:24:40.312Z,1.63
2023-03-23T17:27:08.231Z,1.80
2023-03-23T17:29:37.747Z,1.73
2023-03-23T17:32:06.158Z,1.40
2023-03-23T17:34:34.313Z,1.60
2023-03-23T17:37:02.222Z,2.00
2023-03-23T17:39:32.026Z,1.80
2023-03-23T17:42:10.674Z,2.20
2023-03-23T17:44:40.750Z,2.00
2023-03-23T17:47:08.722Z,2.00
2023-03-23T17:49:36.884Z,1.93
2023-03-23T17:52:08.528Z,2.10
2023-03-23T17:54:36.613Z,2.10
2023-03-23T17:57:05.222Z,2.00
2023-03-23T17:59:34.170Z,2.00
2023-03-23T18:02:03.495Z,2.10
2023-03-23T18:04:31.835Z,2.10
2023-03-23T18:07:00.006Z,2.00
2023-03-23T18:09:28.309Z,1.87
2023-03-23T18:11:56.972Z,2.10
2023-03-23T18:14:24.880Z,2.00
2023-03-23T18:16:53.195Z,2.20
2023-03-23T18:19:22.643Z,2.00
2023-03-23T18:21:50.459Z,2.13
2023-03-23T18:24:18.286Z,1.53
2023-03-23T18:26:46.225Z,2.50
2023-03-23T18:29:14.065Z,2.07
2023-03-23T18:31:43.119Z,1.67
2023-03-23T18:34:11.374Z,2.10
2023-03-23T18:36:42.955Z,2.00
2023-03-23T18:39:12.291Z,2.20
2023-03-23T18:41:41.265Z,1.90
2023-03-23T18:44:09.271Z,1.73
2023-03-23T18:46:37.672Z,2.23
2023-03-23T18:49:05.920Z,2.10
2023-03-23T18:51:33.902Z,2.20
2023-03-23T18:54:03.587Z,2.60
2023-03-23T18:56:31.567Z,2.03
2023-03-23T18:58:59.514Z,2.10
2023-03-23T19:01:27.625Z,2.20
2023-03-23T19:03:55.711Z,2.50
2023-03-23T19:06:27.760Z,2.17
2023-03-23T19:08:56.019Z,2.50
2023-03-23T19:11:27.316Z,2.33
2023-03-23T19:14:02.569Z,1.93
2023-03-23T19:16:33.894Z,1.97
2023-03-23T19:19:03.106Z,2.30
2023-03-23T19:21:32.197Z,2.30
2023-03-23T19:24:00.787Z,2.20
2023-03-23T19:26:34.857Z,1.97
2023-03-23T19:31:47.957Z,1.70
2023-03-23T19:34:17.204Z,1.87
2023-03-23T19:36:54.369Z,2.50
2023-03-23T19:39:23.206Z,2.40
2023-03-23T19:41:52.649Z,2.30
2023-03-23T19:44:20.780Z,2.00
2023-03-23T19:46:49.351Z,2.17
2023-03-23T19:49:17.581Z,2.00
2023-03-23T19:51:46.146Z,2.37
2023-03-23T19:54:14.476Z,2.40
2023-03-23T19:56:43.923Z,2.10
2023-03-23T19:59:28.617Z,1.90
2023-03-23T20:01:56.888Z,2.10
2023-03-23T20:04:25.938Z,2.60
2023-03-23T20:06:57.089Z,2.60
2023-03-23T20:09:25.998Z,2.43
2023-03-23T20:11:54.230Z,2.20
2023-03-23T20:14:22.270Z,2.30
2023-03-23T20:16:53.070Z,2.43
2023-03-23T20:19:21.619Z,2.47
2023-03-23T20:21:49.502Z,2.40
2023-03-23T20:24:17.316Z,2.07
2023-03-23T20:26:45.634Z,2.70
2023-03-23T20:29:14.157Z,2.27
2023-03-23T20:31:43.208Z,2.80
2023-03-23T20:34:14.263Z,2.50
2023-03-23T20:36:45.322Z,2.37
2023-03-23T20:39:16.221Z,2.13
2023-03-23T20:41:44.356Z,2.77
2023-03-23T20:44:46.167Z,2.53
2023-03-23T20:47:28.543Z,2.63
2023-03-23T20:49:58.690Z,2.80
2023-03-23T20:52:27.199Z,2.30
2023-03-23T20:54:56.581Z,3.07
2023-03-23T20:57:24.873Z,2.73
2023-03-23T20:59:53.429Z,2.93
2023-03-23T21:02:21.447Z,2.80
2023-03-23T21:04:52.669Z,3.10
2023-03-23T21:07:23.893Z,2.50
2023-03-23T21:09:51.769Z,2.80
2023-03-23T21:12:19.948Z,2.73
2023-03-23T21:14:47.820Z,3.00
2023-03-23T21:17:16.117Z,3.60
2023-03-23T21:19:44.219Z,3.40
2023-03-23T21:22:14.872Z,3.10
2023-03-23T21:24:46.444Z,2.90
2023-03-23T21:27:18.915Z,3.10
2023-03-23T21:29:46.871Z,2.90
2023-03-23T21:32:14.829Z,3.10
2023-03-23T21:34:43.315Z,3.27
2023-03-23T21:37:12.319Z,3.40
2023-03-23T21:39:40.182Z,3.40
2023-03-23T21:42:09.420Z,3.47
2023-03-23T21:44:39.151Z,4.07
2023-03-23T21:47:07.160Z,4.00
2023-03-23T21:49:35.767Z,3.57
2023-03-23T21:52:08.665Z,3.03
2023-03-23T21:54:36.591Z,2.77
2023-03-23T21:57:04.549Z,3.10
2023-03-23T21:59:33.997Z,2.90
2023-03-23T22:02:02.273Z,2.50
2023-03-23T22:04:30.318Z,2.67
2023-03-23T22:06:58.358Z,2.80
2023-03-23T22:09:26.941Z,2.50
2023-03-23T22:11:55.040Z,3.70
2023-03-23T22:14:23.121Z,2.90
2023-03-23T22:16:52.426Z,2.23
2023-03-23T22:19:21.034Z,2.77
2023-03-23T22:21:48.946Z,2.23
2023-03-23T22:24:17.589Z,2.53
2023-03-23T22:26:45.810Z,2.80
2023-03-23T22:29:16.826Z,3.03
2023-03-23T22:31:45.669Z,2.67
2023-03-23T22:34:15.045Z,3.10
2023-03-23T22:36:42.990Z,3.73
2023-03-23T22:39:11.732Z,3.00
2023-03-23T22:41:44.369Z,2.80
2023-03-23T22:44:14.962Z,3.40
2023-03-23T22:46:43.699Z,3.33
2023-03-23T22:49:12.016Z,3.40
2023-03-23T22:51:41.574Z,4.00
2023-03-23T22:54:09.497Z,3.33
2023-03-23T22:56:38.336Z,2.90
2023-03-23T22:59:06.809Z,3.27
2023-03-23T23:01:35.311Z,2.93
2023-03-23T23:04:03.539Z,2.97
2023-03-23T23:06:31.854Z,3.50
2023-03-23T23:09:01.236Z,3.40
2023-03-23T23:11:29.158Z,3.30
2023-03-23T23:13:57.164Z,3.30
2023-03-23T23:16:29.023Z,3.00
2023-03-23T23:18:57.188Z,2.77
2023-03-23T23:21:28.898Z,2.63
2023-03-23T23:23:56.989Z,2.57
2023-03-23T23:26:27.480Z,3.23
2023-03-23T23:28:55.301Z,2.90
2023-03-23T23:31:27.105Z,2.83
2023-03-23T23:33:56.845Z,2.57
2023-03-23T23:36:28.391Z,3.03
2023-03-23T23:38:56.843Z,2.67
2023-03-23T23:41:27.129Z,3.20
2023-03-23T23:43:55.321Z,2.40
2023-03-23T23:46:23.388Z,2.40
2023-03-23T23:48:51.354Z,1.93
2023-03-23T23:51:19.710Z,2.80
2023-03-23T23:53:53.169Z,2.77
2023-03-23T23:56:22.174Z,1.87
2023-03-23T23:58:51.879Z,1.87
